Time;durP1;ratioP1;P1;durP2;ratioP2;P2;SDS_P1;SDS_P2;PMS_P1;PMS_P2;Temp;Humidity;BMP_temperature;BMP_pressure;BME280_temperature;BME280_humidity;BME280_pressure;Samples;Min_cycle;Max_cycle;Signal;HPM_P1;HPM_P2
2022/09/21 00:02:45;;;;;;;;;;;;;;;;;;5089743;28;19916;-77
2022/09/21 00:05:31;;;;;;;;;;;;;;;;;;5076718;28;19923;-76
2022/09/21 00:08:18;;;;;;;;;;;;;;;;;;5081920;28;19908;-76
2022/09/21 00:11:04;;;;;;;;;;;;;;;;;;5081188;28;19918;-76
2022/09/21 00:13:51;;;;;;;;;;;;;;;;;;5077672;28;19923;-76
2022/09/21 00:16:38;;;;;;;;;;;;;;;;;;5074941;28;19935;-76
2022/09/21 00:19:24;;;;;;;;;;;;;;;;;;5080674;28;19936;-77
2022/09/21 00:22:11;;;;;;;;;;;;;;;;;;5088139;28;20458;-76
2022/09/21 00:24:57;;;;;;;;;;;;;;;;;;5084283;28;19924;-76
2022/09/21 00:27:50;;;;;;;;;;;;;;;;;;5082887;28;20372;-77
2022/09/21 00:30:36;;;;;;;;;;;;;;;;;;5087520;28;20404;-77
2022/09/21 00:33:23;;;;;;;;;;;;;;;;;;5090409;28;19926;-77
2022/09/21 00:36:09;;;;;;;;;;;;;;;;;;5066278;28;19947;-77
2022/09/21 00:38:56;;;;;;;;;;;;;;;;;;5082416;28;19920;-78
2022/09/21 00:41:42;;;;;;;;;;;;;;;;;;5075067;28;20296;-77
2022/09/21 00:44:29;;;;;;;;;;;;;;;;;;5066802;28;19923;-78
2022/09/21 00:47:16;;;;;;;;;;;;;;;;;;5083396;28;19916;-77
2022/09/21 00:50:02;;;;;;;;;;;;;;;;;;5082524;28;20398;-78
2022/09/21 00:52:48;;;;;;;;;;;;;;;;;;5072823;28;19920;-77
2022/09/21 00:55:36;;;;;;;;;;;;;;;;;;5079789;28;19923;-77
2022/09/21 00:58:24;;;;;;;;;;;;;;;;;;5099847;28;19975;-78
2022/09/21 01:01:11;;;;;;;;;;;;;;;;;;5086175;28;19927;-76
2022/09/21 01:03:57;;;;;;;;;;;;;;;;;;5065434;28;19912;-76
2022/09/21 01:06:43;;;;;;;;;;;;;;;;;;5094033;28;19920;-76
2022/09/21 01:09:30;;;;;;;;;;;;;;;;;;5088656;28;19917;-76
2022/09/21 01:12:17;;;;;;;;;;;;;;;;;;5087710;28;19923;-76
2022/09/21 01:15:03;;;;;;;;;;;;;;;;;;5070675;28;19920;-77
2022/09/21 01:17:50;;;;;;;;;;;;;;;;;;5087638;28;19924;-77
2022/09/21 01:20:36;;;;;;;;;;;;;;;;;;5066883;28;20264;-75
2022/09/21 01:23:23;;;;;;;;;;;;;;;;;;5075678;28;20380;-77
2022/09/21 01:26:10;;;;;;;;;;;;;;;;;;5074039;28;19927;-77
2022/09/21 01:28:56;;;;;;;;;;;;;;;;;;5088080;28;19918;-77
2022/09/21 01:31:43;;;;;;;;;;;;;;;;;;5067485;28;20355;-77
2022/09/21 01:34:29;;;;;;;;;;;;;;;;;;5086886;28;20426;-77
2022/09/21 01:37:16;;;;;;;;;;;;;;;;;;5081546;28;19923;-77
2022/09/21 01:40:02;;;;;;;;;;;;;;;;;;5092657;28;19931;-77
2022/09/21 01:42:49;;;;;;;;;;;;;;;;;;5094260;28;19923;-77
2022/09/21 01:45:36;;;;;;;;;;;;;;;;;;5071400;28;19922;-77
2022/09/21 01:48:22;;;;;;;;;;;;;;;;;;5080678;28;19917;-77
2022/09/21 01:51:09;;;;;;;;;;;;;;;;;;5070325;28;19912;-77
2022/09/21 01:53:55;;;;;;;;;;;;;;;;;;5085216;28;19908;-77
2022/09/21 01:56:42;;;;;;;;;;;;;;;;;;5087881;28;20472;-77
2022/09/21 01:59:29;;;;;;;;;;;;;;;;;;5086558;28;19920;-77
2022/09/21 02:02:15;;;;;;;;;;;;;;;;;;5083392;28;19923;-76
2022/09/21 02:05:02;;;;;;;;;;;;;;;;;;5080793;28;20375;-77
2022/09/21 02:07:48;;;;;;;;;;;;;;;;;;5085471;28;19919;-77
2022/09/21 02:10:35;;;;;;;;;;;;;;;;;;5069036;28;20371;-77
2022/09/21 02:13:22;;;;;;;;;;;;;;;;;;5079984;28;19920;-77
2022/09/21 02:16:11;;;;;;;;;;;;;;;;;;5084293;28;19916;-77
2022/09/21 02:18:58;;;;;;;;;;;;;;;;;;5075729;28;19948;-77
2022/09/21 02:21:44;;;;;;;;;;;;;;;;;;5076894;28;19920;-77
2022/09/21 02:24:31;;;;;;;;;;;;;;;;;;5102997;28;19916;-78
2022/09/21 02:27:18;;;;;;;;;;;;;;;;;;5076173;28;20441;-76
2022/09/21 02:30:04;;;;;;;;;;;;;;;;;;5083219;28;20378;-76
2022/09/21 02:32:51;;;;;;;;;;;;;;;;;;5087530;28;19920;-77
2022/09/21 02:35:37;;;;;;;;;;;;;;;;;;5087587;28;20283;-76
2022/09/21 02:38:25;;;;;;;;;;;;;;;;;;5083033;28;19912;-77
2022/09/21 02:41:12;;;;;;;;;;;;;;;;;;5078686;28;20264;-77
2022/09/21 02:43:59;;;;;;;;;;;;;;;;;;5069415;28;19916;-78
2022/09/21 02:46:45;;;;;;;;;;;;;;;;;;5085363;28;19919;-77
2022/09/21 02:49:32;;;;;;;;;;;;;;;;;;5080249;28;20782;-78
2022/09/21 02:52:19;;;;;;;;;;;;;;;;;;5086796;28;19923;-77
2022/09/21 02:55:05;;;;;;;;;;;;;;;;;;5090617;28;19922;-78
2022/09/21 02:57:51;;;;;;;;;;;;;;;;;;5084360;28;20290;-78
2022/09/21 03:00:38;;;;;;;;;;;;;;;;;;5072996;28;19923;-77
2022/09/21 03:03:25;;;;;;;;;;;;;;;;;;5086832;28;20477;-77
2022/09/21 03:06:11;;;;;;;;;;;;;;;;;;5095608;28;19916;-77
2022/09/21 03:08:58;;;;;;;;;;;;;;;;;;5074810;28;20390;-77
2022/09/21 03:11:44;;;;;;;;;;;;;;;;;;5077029;28;19916;-77
2022/09/21 03:14:31;;;;;;;;;;;;;;;;;;5077930;28;19940;-76
2022/09/21 03:17:18;;;;;;;;;;;;;;;;;;5073162;28;20276;-77
2022/09/21 03:20:04;;;;;;;;;;;;;;;;;;5075298;28;19912;-75
2022/09/21 03:22:51;;;;;;;;;;;;;;;;;;5073707;28;20408;-75
2022/09/21 03:25:37;;;;;;;;;;;;;;;;;;5075275;28;19921;-76
2022/09/21 03:28:24;;;;;;;;;;;;;;;;;;5089967;28;20310;-77
2022/09/21 03:31:11;;;;;;;;;;;;;;;;;;5082477;28;20226;-76
2022/09/21 03:33:57;;;;;;;;;;;;;;;;;;5093807;28;19918;-76
2022/09/21 03:36:44;;;;;;;;;;;;;;;;;;5089785;28;20367;-76
2022/09/21 03:39:30;;;;;;;;;;;;;;;;;;5075770;28;19922;-76
2022/09/21 03:42:17;;;;;;;;;;;;;;;;;;5087428;28;19916;-77
2022/09/21 03:45:03;;;;;;;;;;;;;;;;;;5086137;28;19936;-77
2022/09/21 03:47:50;;;;;;;;;;;;;;;;;;5083147;28;19935;-77
2022/09/21 03:50:36;;;;;;;;;;;;;;;;;;5085515;28;20294;-77
2022/09/21 03:53:22;;;;;;;;;;;;;;;;;;5077755;28;19924;-77
2022/09/21 03:56:09;;;;;;;;;;;;;;;;;;5082955;28;19916;-78
2022/09/21 03:58:55;;;;;;;;;;;;;;;;;;5076521;28;19924;-76
2022/09/21 04:01:42;;;;;;;;;;;;;;;;;;5087317;28;20291;-76
2022/09/21 04:04:28;;;;;;;;;;;;;;;;;;5073502;28;19950;-77
2022/09/21 04:07:15;;;;;;;;;;;;;;;;;;5077394;28;19912;-77
2022/09/21 04:10:01;;;;;;;;;;;;;;;;;;5079431;28;19931;-77
2022/09/21 04:12:48;;;;;;;;;;;;;;;;;;5073394;28;19912;-77
2022/09/21 04:15:35;;;;;;;;;;;;;;;;;;5075105;28;20324;-77
2022/09/21 04:18:21;;;;;;;;;;;;;;;;;;5080279;28;20527;-78
2022/09/21 04:21:08;;;;;;;;;;;;;;;;;;5078055;28;20237;-77
2022/09/21 04:23:55;;;;;;;;;;;;;;;;;;5078181;28;19931;-77
2022/09/21 04:26:41;;;;;;;;;;;;;;;;;;5072009;28;19924;-77
2022/09/21 04:29:28;;;;;;;;;;;;;;;;;;5077503;28;19908;-77
2022/09/21 04:32:14;;;;;;;;;;;;;;;;;;5084422;28;20370;-76
2022/09/21 04:35:01;;;;;;;;;;;;;;;;;;5080466;28;19916;-78
2022/09/21 04:37:47;;;;;;;;;;;;;;;;;;5064733;28;20371;-77
2022/09/21 04:40:33;;;;;;;;;;;;;;;;;;5081275;28;19919;-77
2022/09/21 04:43:20;;;;;;;;;;;;;;;;;;5072255;28;20311;-78
2022/09/21 04:46:06;;;;;;;;;;;;;;;;;;5088071;28;19919;-77
2022/09/21 04:48:53;;;;;;;;;;;;;;;;;;5091624;28;19934;-77
2022/09/21 04:51:39;;;;;;;;;;;;;;;;;;5075429;28;19918;-76
2022/09/21 04:54:26;;;;;;;;;;;;;;;;;;5075649;28;19916;-76
2022/09/21 04:57:12;;;;;;;;;;;;;;;;;;5082027;28;19935;-76
2022/09/21 04:59:59;;;;;;;;;;;;;;;;;;5080157;28;20372;-77
2022/09/21 05:02:45;;;;;;;;;;;;;;;;;;5075468;28;19912;-76
2022/09/21 05:05:32;;;;;;;;;;;;;;;;;;5089043;28;19944;-77
2022/09/21 05:10:01;;;;;;;;;;;;;;;;;;5082409;28;20335;-77
2022/09/21 05:11:28;;;;;;;;;;;;;;;;;;5090556;28;19912;-77
2022/09/21 05:14:14;;;;;;;;;;;;;;;;;;5085499;28;19934;-76
2022/09/21 05:17:01;;;;;;;;;;;;;;;;;;5080823;28;20454;-76
2022/09/21 05:19:47;;;;;;;;;;;;;;;;;;5074395;28;19914;-76
2022/09/21 05:22:33;;;;;;;;;;;;;;;;;;5076789;28;19916;-77
2022/09/21 05:25:20;;;;;;;;;;;;;;;;;;5073150;28;19928;-77
2022/09/21 05:28:06;;;;;;;;;;;;;;;;;;5076642;28;19915;-78
2022/09/21 05:30:54;;;;;;;;;;;;;;;;;;5084061;28;19919;-77
2022/09/21 05:33:40;;;;;;;;;;;;;;;;;;5077979;28;20554;-77
2022/09/21 05:36:27;;;;;;;;;;;;;;;;;;5075698;28;19921;-76
2022/09/21 05:39:13;;;;;;;;;;;;;;;;;;5077883;28;19916;-76
2022/09/21 05:41:59;;;;;;;;;;;;;;;;;;5078549;28;19916;-77
2022/09/21 05:44:48;;;;;;;;;;;;;;;;;;5082167;28;19938;-77
2022/09/21 05:47:34;;;;;;;;;;;;;;;;;;5074572;28;20727;-76
2022/09/21 05:50:21;;;;;;;;;;;;;;;;;;5081569;28;19912;-77
2022/09/21 05:53:07;;;;;;;;;;;;;;;;;;5069003;28;19915;-77
2022/09/21 05:55:54;;;;;;;;;;;;;;;;;;5081153;28;20342;-78
2022/09/21 05:58:40;;;;;;;;;;;;;;;;;;5061539;28;19917;-77
2022/09/21 06:01:27;;;;;;;;;;;;;;;;;;5079869;28;19912;-77
2022/09/21 06:04:13;;;;;;;;;;;;;;;;;;5079517;28;20112;-77
2022/09/21 06:07:00;;;;;;;;;;;;;;;;;;5068676;28;19912;-77
2022/09/21 06:09:46;;;;;;;;;;;;;;;;;;5062593;28;19916;-77
2022/09/21 06:12:33;;;;;;;;;;;;;;;;;;5077472;28;19916;-76
2022/09/21 06:15:19;;;;;;;;;;;;;;;;;;5076028;28;20193;-75
2022/09/21 06:18:06;;;;;;;;;;;;;;;;;;5069335;28;19919;-76
2022/09/21 06:20:52;;;;;;;;;;;;;;;;;;5081399;28;19921;-75
2022/09/21 06:23:39;;;;;;;;;;;;;;;;;;5078880;28;19916;-75
2022/09/21 06:26:25;;;;;;;;;;;;;;;;;;5067831;28;19925;-75
2022/09/21 06:29:12;;;;;;;;;;;;;;;;;;5071086;28;19919;-76
2022/09/21 06:31:58;;;;;;;;;;;;;;;;;;5072167;28;19919;-76
2022/09/21 06:34:45;;;;;;;;;;;;;;;;;;5074500;28;19912;-76
2022/09/21 06:37:31;;;;;;;;;;;;;;;;;;5089317;28;19920;-77
2022/09/21 06:40:18;;;;;;;;;;;;;;;;;;5081053;28;19926;-77
2022/09/21 06:43:04;;;;;;;;;;;;;;;;;;5080582;28;20643;-77
2022/09/21 06:45:51;;;;;;;;;;;;;;;;;;5085692;28;20653;-77
2022/09/21 06:48:37;;;;;;;;;;;;;;;;;;5077328;28;19919;-77
2022/09/21 06:51:24;;;;;;;;;;;;;;;;;;5094184;28;19911;-77
2022/09/21 06:54:10;;;;;;;;;;;;;;;;;;5090332;28;20290;-77
2022/09/21 06:56:57;;;;;;;;;;;;;;;;;;5078396;28;19928;-77
2022/09/21 06:59:43;;;;;;;;;;;;;;;;;;5080349;28;19912;-77
2022/09/21 07:02:30;;;;;;;;;;;;;;;;;;5072953;28;19912;-77
2022/09/21 07:05:16;;;;;;;;;;;;;;;;;;5086142;28;19920;-77
2022/09/21 07:08:02;;;;;;;;;;;;;;;;;;5083556;28;20267;-77
2022/09/21 07:10:49;;;;;;;;;;;;;;;;;;5082319;28;19923;-77
2022/09/21 07:13:35;;;;;;;;;;;;;;;;;;5082168;28;20275;-77
2022/09/21 07:16:23;;;;;;;;;;;;;;;;;;5085033;28;20382;-77
2022/09/21 07:19:09;;;;;;;;;;;;;;;;;;5087164;28;19916;-77
2022/09/21 07:21:56;;;;;;;;;;;;;;;;;;5084970;28;19913;-77
2022/09/21 07:24:42;;;;;;;;;;;;;;;;;;5104688;28;19957;-77
2022/09/21 07:27:29;;;;;;;;;;;;;;;;;;5091916;28;19916;-76
2022/09/21 07:30:15;;;;;;;;;;;;;;;;;;5084049;28;19916;-77
2022/09/21 07:33:02;;;;;;;;;;;;;;;;;;5101332;28;19916;-77
2022/09/21 07:35:48;;;;;;;;;;;;;;;;;;5099719;28;19916;-77
2022/09/21 07:38:35;;;;;;;;;;;;;;;;;;5078784;28;19912;-77
2022/09/21 07:41:21;;;;;;;;;;;;;;;;;;5097902;28;19908;-77
2022/09/21 07:44:08;;;;;;;;;;;;;;;;;;5090829;28;20378;-77
2022/09/21 07:46:55;;;;;;;;;;;;;;;;;;5097883;28;19916;-76
2022/09/21 07:49:41;;;;;;;;;;;;;;;;;;5086294;28;19922;-77
2022/09/21 07:52:28;;;;;;;;;;;;;;;;;;5089037;28;19908;-75
2022/09/21 07:55:14;;;;;;;;;;;;;;;;;;5098143;28;19922;-76
2022/09/21 08:01:06;;;;;;;;;;;;;;;;;;5085103;28;19962;-76
2022/09/21 08:03:52;;;;;;;;;;;;;;;;;;5083845;28;19912;-77
2022/09/21 08:06:39;;;;;;;;;;;;;;;;;;5090731;28;19986;-76
2022/09/21 08:09:25;;;;;;;;;;;;;;;;;;5091081;28;20364;-76
2022/09/21 08:12:12;;;;;;;;;;;;;;;;;;5087967;28;19912;-76
2022/09/21 08:14:58;;;;;;;;;;;;;;;;;;5078454;28;19919;-76
2022/09/21 08:17:45;;;;;;;;;;;;;;;;;;5079897;28;20248;-77
2022/09/21 08:20:31;;;;;;;;;;;;;;;;;;5096308;28;19926;-76
2022/09/21 08:23:18;;;;;;;;;;;;;;;;;;5090306;28;19936;-76
2022/09/21 08:26:05;;;;;;;;;;;;;;;;;;5071995;28;19929;-76
2022/09/21 08:28:52;;;;;;;;;;;;;;;;;;5076632;28;19924;-76
2022/09/21 08:31:38;;;;;;;;;;;;;;;;;;5078067;28;19908;-76
2022/09/21 08:34:25;;;;;;;;;;;;;;;;;;5087291;28;19919;-75
2022/09/21 08:37:11;;;;;;;;;;;;;;;;;;5078263;28;19920;-76
2022/09/21 08:40:01;;;;;;;;;;;;;;;;;;5073019;28;19912;-75
2022/09/21 08:42:47;;;;;;;;;;;;;;;;;;5073367;28;20292;-76
2022/09/21 08:45:34;;;;;;;;;;;;;;;;;;5079010;28;19915;-75
2022/09/21 08:48:21;;;;;;;;;;;;;;;;;;5087725;28;20410;-76
2022/09/21 08:51:07;;;;;;;;;;;;;;;;;;5082262;28;19920;-76
2022/09/21 08:53:54;;;;;;;;;;;;;;;;;;5079947;28;19912;-76
2022/09/21 08:56:40;;;;;;;;;;;;;;;;;;5086182;28;19923;-76
2022/09/21 08:59:27;;;;;;;;;;;;;;;;;;5074423;28;19912;-76
2022/09/21 09:02:13;;;;;;;;;;;;;;;;;;5086232;28;19912;-76
2022/09/21 09:05:00;;;;;;;;;;;;;;;;;;5081853;28;21180;-76
2022/09/21 09:07:46;;;;;;;;;;;;;;;;;;5074430;28;19908;-77
2022/09/21 09:10:32;;;;;;;;;;;;;;;;;;5077641;28;19908;-76
2022/09/21 09:13:19;;;;;;;;;;;;;;;;;;5075100;28;19919;-77
2022/09/21 09:16:06;;;;;;;;;;;;;;;;;;5085605;28;19916;-79
2022/09/21 09:18:52;;;;;;;;;;;;;;;;;;5076614;28;20375;-76
2022/09/21 09:21:39;;;;;;;;;;;;;;;;;;5071173;28;19912;-75
2022/09/21 09:24:25;;;;;;;;;;;;;;;;;;5086492;28;19920;-76
2022/09/21 09:27:14;;;;;;;;;;;;;;;;;;5087160;28;19931;-76
2022/09/21 09:30:00;;;;;;;;;;;;;;;;;;5080466;28;19916;-76
2022/09/21 09:32:47;;;;;;;;;;;;;;;;;;5088511;28;19915;-76
2022/09/21 09:35:33;;;;;;;;;;;;;;;;;;5079464;28;19917;-74
2022/09/21 09:38:19;;;;;;;;;;;;;;;;;;5068389;28;19923;-76
2022/09/21 09:41:06;;;;;;;;;;;;;;;;;;5081555;28;19958;-75
2022/09/21 09:43:53;;;;;;;;;;;;;;;;;;5080898;28;19915;-76
2022/09/21 09:46:44;;;;;;;;;;;;;;;;;;5077203;28;19926;-76
2022/09/21 09:49:31;;;;;;;;;;;;;;;;;;5080756;28;19935;-76
2022/09/21 09:52:17;;;;;;;;;;;;;;;;;;5083588;28;19935;-75
2022/09/21 09:55:04;;;;;;;;;;;;;;;;;;5076566;28;19908;-76
2022/09/21 09:57:50;;;;;;;;;;;;;;;;;;5081972;28;19950;-76
2022/09/21 10:00:37;;;;;;;;;;;;;;;;;;5077624;28;19916;-76
2022/09/21 10:03:23;;;;;;;;;;;;;;;;;;5076131;28;20395;-75
2022/09/21 10:06:10;;;;;;;;;;;;;;;;;;5091893;28;19920;-76
2022/09/21 10:08:56;;;;;;;;;;;;;;;;;;5072133;28;19912;-76
2022/09/21 10:11:42;;;;;;;;;;;;;;;;;;5073741;28;19915;-77
2022/09/21 10:14:29;;;;;;;;;;;;;;;;;;5086956;28;19942;-76
2022/09/21 10:17:15;;;;;;;;;;;;;;;;;;5086585;28;19929;-75
2022/09/21 10:20:02;;;;;;;;;;;;;;;;;;5085089;28;20470;-76
2022/09/21 10:22:49;;;;;;;;;;;;;;;;;;5080764;28;19912;-76
2022/09/21 10:25:35;;;;;;;;;;;;;;;;;;5089844;28;20379;-76
2022/09/21 10:28:23;;;;;;;;;;;;;;;;;;5080506;28;19912;-76
2022/09/21 10:31:09;;;;;;;;;;;;;;;;;;5088292;28;19911;-76
2022/09/21 10:33:56;;;;;;;;;;;;;;;;;;5084588;28;19935;-76
2022/09/21 10:36:43;;;;;;;;;;;;;;;;;;5075628;28;20379;-77
2022/09/21 10:39:29;;;;;;;;;;;;;;;;;;5083447;28;19908;-76
2022/09/21 10:42:16;;;;;;;;;;;;;;;;;;5079054;28;19919;-77
2022/09/21 10:45:02;;;;;;;;;;;;;;;;;;5089749;28;20560;-76
2022/09/21 10:47:48;;;;;;;;;;;;;;;;;;5078438;28;20566;-76
2022/09/21 10:50:35;;;;;;;;;;;;;;;;;;5070135;28;19920;-77
2022/09/21 10:53:21;;;;;;;;;;;;;;;;;;5079027;28;19912;-77
2022/09/21 10:56:08;;;;;;;;;;;;;;;;;;5073299;28;19926;-78
2022/09/21 10:58:54;;;;;;;;;;;;;;;;;;5082319;28;20065;-78
2022/09/21 11:01:41;;;;;;;;;;;;;;;;;;5077922;28;20003;-77
2022/09/21 11:04:27;;;;;;;;;;;;;;;;;;5079896;28;19916;-76
2022/09/21 11:07:14;;;;;;;;;;;;;;;;;;5088868;28;19931;-76
2022/09/21 11:10:00;;;;;;;;;;;;;;;;;;5093068;28;19918;-76
2022/09/21 11:12:47;;;;;;;;;;;;;;;;;;5078447;28;19917;-77
2022/09/21 11:15:33;;;;;;;;;;;;;;;;;;5077086;28;19927;-77
2022/09/21 11:18:20;;;;;;;;;;;;;;;;;;5082049;28;19916;-76
2022/09/21 11:21:06;;;;;;;;;;;;;;;;;;5086045;28;19919;-77
2022/09/21 11:23:53;;;;;;;;;;;;;;;;;;5074793;28;19908;-76
2022/09/21 11:26:39;;;;;;;;;;;;;;;;;;5070267;28;19921;-77
2022/09/21 11:29:26;;;;;;;;;;;;;;;;;;5088866;28;19923;-75
2022/09/21 11:32:12;;;;;;;;;;;;;;;;;;5086410;28;19916;-77
2022/09/21 11:34:59;;;;;;;;;;;;;;;;;;5077750;28;19919;-77
2022/09/21 11:37:45;;;;;;;;;;;;;;;;;;5074185;28;19924;-77
2022/09/21 11:40:32;;;;;;;;;;;;;;;;;;5083131;28;19912;-77
2022/09/21 11:43:18;;;;;;;;;;;;;;;;;;5074486;28;19913;-77
2022/09/21 11:46:05;;;;;;;;;;;;;;;;;;5080552;28;20378;-76
2022/09/21 11:48:52;;;;;;;;;;;;;;;;;;5094996;28;19916;-76
2022/09/21 11:51:38;;;;;;;;;;;;;;;;;;5092923;28;19909;-76
2022/09/21 11:54:26;;;;;;;;;;;;;;;;;;5065724;28;19923;-77
2022/09/21 11:57:17;;;;;;;;;;;;;;;;;;5084409;28;19935;-77
2022/09/21 12:00:04;;;;;;;;;;;;;;;;;;5069511;28;19912;-76
2022/09/21 12:02:50;;;;;;;;;;;;;;;;;;5081482;28;19916;-76
2022/09/21 12:05:37;;;;;;;;;;;;;;;;;;5075151;28;19918;-77
2022/09/21 12:08:24;;;;;;;;;;;;;;;;;;5072403;28;19909;-76
2022/09/21 12:11:12;;;;;;;;;;;;;;;;;;5075518;28;20387;-75
2022/09/21 12:13:58;;;;;;;;;;;;;;;;;;5086057;28;20435;-76
2022/09/21 12:16:45;;;;;;;;;;;;;;;;;;5075647;28;19924;-77
2022/09/21 12:19:32;;;;;;;;;;;;;;;;;;5080061;28;19954;-77
2022/09/21 12:22:19;;;;;;;;;;;;;;;;;;5091439;28;20299;-77
2022/09/21 12:25:06;;;;;;;;;;;;;;;;;;5101507;28;19927;-77
2022/09/21 12:27:52;;;;;;;;;;;;;;;;;;5067976;28;19909;-76
2022/09/21 12:30:39;;;;;;;;;;;;;;;;;;5084638;28;20318;-77
2022/09/21 12:33:25;;;;;;;;;;;;;;;;;;5093285;28;19923;-77
2022/09/21 12:36:13;;;;;;;;;;;;;;;;;;5070607;28;19916;-77
2022/09/21 12:39:00;;;;;;;;;;;;;;;;;;5088430;28;19923;-77
2022/09/21 12:41:47;;;;;;;;;;;;;;;;;;5074012;28;19916;-77
2022/09/21 12:44:34;;;;;;;;;;;;;;;;;;5083670;28;19938;-76
2022/09/21 12:47:22;;;;;;;;;;;;;;;;;;5064013;28;19912;-76
2022/09/21 12:50:09;;;;;;;;;;;;;;;;;;5096338;28;19922;-77
2022/09/21 12:52:56;;;;;;;;;;;;;;;;;;5078887;28;19912;-77
2022/09/21 12:55:43;;;;;;;;;;;;;;;;;;5089322;28;19912;-75
2022/09/21 12:58:29;;;;;;;;;;;;;;;;;;5077019;28;19923;-76
2022/09/21 13:01:16;;;;;;;;;;;;;;;;;;5081032;28;19911;-77
2022/09/21 13:04:02;;;;;;;;;;;;;;;;;;5079185;28;20603;-77
2022/09/21 13:06:50;;;;;;;;;;;;;;;;;;5080435;28;19908;-76
2022/09/21 13:09:36;;;;;;;;;;;;;;;;;;5091858;28;19916;-77
2022/09/21 13:12:23;;;;;;;;;;;;;;;;;;5072809;28;20324;-76
2022/09/21 13:15:10;;;;;;;;;;;;;;;;;;5078563;28;19909;-77
2022/09/21 13:17:57;;;;;;;;;;;;;;;;;;5081348;28;19932;-76
2022/09/21 13:20:43;;;;;;;;;;;;;;;;;;5091172;28;20549;-76
2022/09/21 13:23:30;;;;;;;;;;;;;;;;;;5082656;28;19916;-75
2022/09/21 13:26:18;;;;;;;;;;;;;;;;;;5085389;28;20297;-76
2022/09/21 13:29:05;;;;;;;;;;;;;;;;;;5078801;28;19927;-76
2022/09/21 13:31:56;;;;;;;;;;;;;;;;;;5091161;28;19916;-76
2022/09/21 13:34:42;;;;;;;;;;;;;;;;;;5070866;28;19919;-76
2022/09/21 13:37:29;;;;;;;;;;;;;;;;;;5081404;28;20284;-76
2022/09/21 13:40:15;;;;;;;;;;;;;;;;;;5077762;28;19938;-75
2022/09/21 13:43:02;;;;;;;;;;;;;;;;;;5085947;28;19912;-75
2022/09/21 13:45:48;;;;;;;;;;;;;;;;;;5085003;28;19908;-75
2022/09/21 13:48:35;;;;;;;;;;;;;;;;;;5080600;28;19916;-76
2022/09/21 13:51:22;;;;;;;;;;;;;;;;;;5074333;28;19915;-76
2022/09/21 13:54:08;;;;;;;;;;;;;;;;;;5085062;28;19912;-75
2022/09/21 13:56:54;;;;;;;;;;;;;;;;;;5088062;28;20426;-75
2022/09/21 13:59:42;;;;;;;;;;;;;;;;;;5088254;28;19916;-75
2022/09/21 14:02:31;;;;;;;;;;;;;;;;;;5080175;28;19932;-75
2022/09/21 14:05:18;;;;;;;;;;;;;;;;;;5080731;28;19914;-76
2022/09/21 14:08:04;;;;;;;;;;;;;;;;;;5086194;28;19923;-75
2022/09/21 14:10:51;;;;;;;;;;;;;;;;;;5073222;28;19919;-75
2022/09/21 14:13:37;;;;;;;;;;;;;;;;;;5081527;28;19935;-76
2022/09/21 14:16:25;;;;;;;;;;;;;;;;;;5086702;28;19935;-76
2022/09/21 14:19:11;;;;;;;;;;;;;;;;;;5100417;28;20371;-75
2022/09/21 14:21:58;;;;;;;;;;;;;;;;;;5091626;28;19908;-75
2022/09/21 14:24:45;;;;;;;;;;;;;;;;;;5088488;28;19918;-76
2022/09/21 14:27:32;;;;;;;;;;;;;;;;;;5093187;28;19916;-76
2022/09/21 14:30:18;;;;;;;;;;;;;;;;;;5081708;28;19913;-76
2022/09/21 14:33:06;;;;;;;;;;;;;;;;;;5080113;28;19923;-76
2022/09/21 14:35:52;;;;;;;;;;;;;;;;;;5086784;28;19926;-77
2022/09/21 14:38:39;;;;;;;;;;;;;;;;;;5088621;28;19923;-76
2022/09/21 14:41:26;;;;;;;;;;;;;;;;;;5084448;28;19918;-77
2022/09/21 14:44:13;;;;;;;;;;;;;;;;;;5090388;28;19915;-76
2022/09/21 14:46:59;;;;;;;;;;;;;;;;;;5073898;28;19920;-75
2022/09/21 14:49:46;;;;;;;;;;;;;;;;;;5084902;28;19951;-76
2022/09/21 14:52:32;;;;;;;;;;;;;;;;;;5087461;28;19916;-76
2022/09/21 14:55:19;;;;;;;;;;;;;;;;;;5071576;28;19912;-76
2022/09/21 14:58:06;;;;;;;;;;;;;;;;;;5078751;28;20080;-77
2022/09/21 15:00:53;;;;;;;;;;;;;;;;;;5073332;28;19928;-76
2022/09/21 15:03:39;;;;;;;;;;;;;;;;;;5082661;28;19923;-76
2022/09/21 15:12:46;;;;;;;;;;;;;;;;;;5081093;28;20402;-75
2022/09/21 15:15:33;;;;;;;;;;;;;;;;;;5081875;28;19919;-75
2022/09/21 15:18:19;;;;;;;;;;;;;;;;;;5082475;28;20217;-75
2022/09/21 15:21:06;;;;;;;;;;;;;;;;;;5074336;28;19912;-75
2022/09/21 15:23:52;;;;;;;;;;;;;;;;;;5086392;28;19908;-77
2022/09/21 15:26:39;;;;;;;;;;;;;;;;;;5077583;28;19924;-78
2022/09/21 15:29:26;;;;;;;;;;;;;;;;;;5072664;28;19915;-78
2022/09/21 15:32:12;;;;;;;;;;;;;;;;;;5071802;28;19931;-77
2022/09/21 15:35:00;;;;;;;;;;;;;;;;;;5075005;28;19913;-77
2022/09/21 15:37:46;;;;;;;;;;;;;;;;;;5061367;28;19936;-79
2022/09/21 15:40:33;;;;;;;;;;;;;;;;;;5075404;28;19914;-78
2022/09/21 15:43:19;;;;;;;;;;;;;;;;;;5059958;28;19935;-78
2022/09/21 15:46:06;;;;;;;;;;;;;;;;;;5070078;28;19939;-77
2022/09/21 15:48:53;;;;;;;;;;;;;;;;;;5070718;28;19923;-78
2022/09/21 15:51:39;;;;;;;;;;;;;;;;;;5074853;28;19909;-78
2022/09/21 15:54:26;;;;;;;;;;;;;;;;;;5095262;28;19909;-77
2022/09/21 15:57:13;;;;;;;;;;;;;;;;;;5084064;28;19920;-75
2022/09/21 16:00:00;;;;;;;;;;;;;;;;;;5085442;28;19909;-77
2022/09/21 16:02:46;;;;;;;;;;;;;;;;;;5077105;28;19917;-77
2022/09/21 16:05:33;;;;;;;;;;;;;;;;;;5096397;28;19915;-77
2022/09/21 16:08:21;;;;;;;;;;;;;;;;;;5079191;28;19912;-78
2022/09/21 16:11:07;;;;;;;;;;;;;;;;;;5069450;28;19912;-77
2022/09/21 16:16:59;;;;;;;;;;;;;;;;;;5060371;28;19921;-77
2022/09/21 16:19:46;;;;;;;;;;;;;;;;;;5085459;28;19908;-78
2022/09/21 16:22:33;;;;;;;;;;;;;;;;;;5063318;28;19927;-78
2022/09/21 16:25:20;;;;;;;;;;;;;;;;;;5071237;28;20410;-77
2022/09/21 16:28:08;;;;;;;;;;;;;;;;;;5089791;28;19936;-77
2022/09/21 16:30:56;;;;;;;;;;;;;;;;;;5080017;28;20296;-79
2022/09/21 16:33:42;;;;;;;;;;;;;;;;;;5082902;28;19920;-77
2022/09/21 16:36:30;;;;;;;;;;;;;;;;;;5075747;28;19924;-80
2022/09/21 16:39:17;;;;;;;;;;;;;;;;;;5078103;28;19917;-78
2022/09/21 16:42:04;;;;;;;;;;;;;;;;;;5083317;28;19912;-79
2022/09/21 16:44:51;;;;;;;;;;;;;;;;;;5089056;28;19994;-78
2022/09/21 16:47:38;;;;;;;;;;;;;;;;;;5075876;28;19915;-78
2022/09/21 16:50:24;;;;;;;;;;;;;;;;;;5083067;28;19908;-78
2022/09/21 16:53:11;;;;;;;;;;;;;;;;;;5077814;28;19923;-79
2022/09/21 16:55:57;;;;;;;;;;;;;;;;;;5074818;28;19922;-77
2022/09/21 16:58:44;;;;;;;;;;;;;;;;;;5100057;28;20406;-78
2022/09/21 17:01:30;;;;;;;;;;;;;;;;;;5088453;28;20287;-79
2022/09/21 17:04:17;;;;;;;;;;;;;;;;;;5084390;28;19936;-79
2022/09/21 17:07:06;;;;;;;;;;;;;;;;;;5089900;28;20229;-80
2022/09/21 17:09:52;;;;;;;;;;;;;;;;;;5068485;28;19918;-79
2022/09/21 17:12:39;;;;;;;;;;;;;;;;;;5071027;28;19912;-80
2022/09/21 17:15:25;;;;;;;;;;;;;;;;;;5084669;28;19919;-79
2022/09/21 17:18:12;;;;;;;;;;;;;;;;;;5081789;28;19924;-81
2022/09/21 17:20:58;;;;;;;;;;;;;;;;;;5084173;28;19950;-79
2022/09/21 17:23:45;;;;;;;;;;;;;;;;;;5078728;28;19931;-81
2022/09/21 17:26:32;;;;;;;;;;;;;;;;;;5072237;28;19931;-82
2022/09/21 17:29:22;;;;;;;;;;;;;;;;;;5063666;28;19921;-78
2022/09/21 17:32:09;;;;;;;;;;;;;;;;;;5067611;28;19909;-78
2022/09/21 17:34:55;;;;;;;;;;;;;;;;;;5067933;28;20333;-78
2022/09/21 17:37:42;;;;;;;;;;;;;;;;;;5055918;28;19931;-77
2022/09/21 17:40:28;;;;;;;;;;;;;;;;;;5058477;28;19908;-80
2022/09/21 17:43:16;;;;;;;;;;;;;;;;;;5068114;28;19919;-80
2022/09/21 17:46:03;;;;;;;;;;;;;;;;;;5069282;28;20346;-79
2022/09/21 17:48:49;;;;;;;;;;;;;;;;;;5057716;28;20374;-80
2022/09/21 17:54:41;;;;;;;;;;;;;;;;;;5053249;28;19913;-79
2022/09/21 17:57:28;;;;;;;;;;;;;;;;;;5059636;28;19922;-79
2022/09/21 18:00:14;;;;;;;;;;;;;;;;;;5073548;28;19909;-78
2022/09/21 18:03:01;;;;;;;;;;;;;;;;;;5047510;28;19908;-79
2022/09/21 18:05:49;;;;;;;;;;;;;;;;;;5063216;28;19995;-79
2022/09/21 18:08:35;;;;;;;;;;;;;;;;;;5073156;28;19913;-79
2022/09/21 18:11:22;;;;;;;;;;;;;;;;;;5051521;28;19917;-79
2022/09/21 18:14:08;;;;;;;;;;;;;;;;;;5073244;28;19912;-79
2022/09/21 18:16:55;;;;;;;;;;;;;;;;;;5083756;28;19920;-79
2022/09/21 18:19:42;;;;;;;;;;;;;;;;;;5087878;28;19913;-78
2022/09/21 18:22:29;;;;;;;;;;;;;;;;;;5074017;28;19927;-78
2022/09/21 18:25:16;;;;;;;;;;;;;;;;;;5087558;28;19920;-79
2022/09/21 18:28:03;;;;;;;;;;;;;;;;;;5093989;28;19908;-79
2022/09/21 18:30:49;;;;;;;;;;;;;;;;;;5100735;28;19971;-79
2022/09/21 18:33:36;;;;;;;;;;;;;;;;;;5098852;28;20747;-82
2022/09/21 18:36:23;;;;;;;;;;;;;;;;;;5101199;28;19924;-79
2022/09/21 18:39:09;;;;;;;;;;;;;;;;;;5097936;28;19912;-80
2022/09/21 18:41:56;;;;;;;;;;;;;;;;;;5071004;28;19924;-79
2022/09/21 18:44:43;;;;;;;;;;;;;;;;;;5070995;28;19912;-79
2022/09/21 18:47:31;;;;;;;;;;;;;;;;;;5078108;28;19923;-81
2022/09/21 18:50:18;;;;;;;;;;;;;;;;;;5075695;28;19921;-78
2022/09/21 18:53:05;;;;;;;;;;;;;;;;;;5074798;28;20313;-80
2022/09/21 18:55:51;;;;;;;;;;;;;;;;;;5087182;28;19915;-78
2022/09/21 18:58:38;;;;;;;;;;;;;;;;;;5080672;28;19924;-77
2022/09/21 19:01:27;;;;;;;;;;;;;;;;;;5080117;28;19923;-75
2022/09/21 19:04:16;;;;;;;;;;;;;;;;;;5090997;28;19912;-76
2022/09/21 19:07:02;;;;;;;;;;;;;;;;;;5080337;28;19912;-77
2022/09/21 19:09:51;;;;;;;;;;;;;;;;;;5092407;28;19916;-76
2022/09/21 19:12:37;;;;;;;;;;;;;;;;;;5083412;28;19912;-76
2022/09/21 19:15:23;;;;;;;;;;;;;;;;;;5076074;28;20399;-78